createdAt,value
2023-03-20T00:01:16.413Z,38.10
2023-03-20T00:03:47.118Z,38.50
2023-03-20T00:06:20.464Z,88.20
2023-03-20T00:08:52.914Z,46.40
2023-03-20T00:11:31.504Z,41.70
2023-03-20T00:14:06.033Z,44.10
2023-03-20T00:16:39.217Z,46.10
2023-03-20T00:19:16.506Z,39.90
2023-03-20T00:21:48.022Z,40.00
2023-03-20T00:24:18.836Z,42.90
2023-03-20T00:26:51.245Z,39.80
2023-03-20T00:29:26.251Z,39.80
2023-03-20T00:31:58.450Z,36.90
2023-03-20T00:34:31.673Z,40.80
2023-03-20T00:37:02.834Z,39.60
2023-03-20T00:39:34.426Z,35.30
2023-03-20T00:42:07.712Z,37.50
2023-03-20T00:44:42.324Z,35.80
2023-03-20T00:47:19.603Z,37.90
2023-03-20T00:49:52.294Z,37.50
2023-03-20T00:52:23.567Z,37.80
2023-03-20T00:54:55.355Z,38.70
2023-03-20T00:57:29.253Z,36.70
2023-03-20T01:00:05.145Z,36.20
2023-03-20T01:02:35.926Z,37.90
2023-03-20T01:05:07.071Z,38.70
2023-03-20T01:07:37.581Z,35.30
2023-03-20T01:10:11.520Z,38.30
2023-03-20T01:12:43.193Z,38.60
2023-03-20T01:15:20.936Z,34.20
2023-03-20T01:17:52.953Z,35.40
2023-03-20T01:20:27.168Z,36.40
2023-03-20T01:22:58.049Z,36.00
2023-03-20T01:25:28.871Z,36.70
2023-03-20T01:27:59.489Z,33.80
2023-03-20T01:30:32.349Z,36.80
2023-03-20T01:33:07.568Z,34.30
2023-03-20T01:35:38.853Z,33.10
2023-03-20T01:38:14.907Z,36.50
2023-03-20T01:40:55.948Z,28.40
2023-03-20T01:43:28.682Z,29.70
2023-03-20T01:46:03.933Z,28.80
2023-03-20T01:49:01.880Z,29.40
2023-03-20T01:51:35.871Z,32.50
2023-03-20T01:54:14.914Z,24.80
2023-03-20T01:57:10.745Z,26.80
2023-03-20T01:59:47.785Z,26.80
2023-03-20T02:02:23.210Z,26.70
2023-03-20T02:04:57.217Z,25.80
2023-03-20T02:07:28.283Z,25.10
2023-03-20T02:10:05.422Z,25.80
2023-03-20T02:12:45.279Z,24.70
2023-03-20T02:15:18.265Z,24.60
2023-03-20T02:18:01.889Z,23.30
2023-03-20T02:20:49.821Z,25.50
2023-03-20T02:23:55.673Z,26.50
2023-03-20T02:26:47.020Z,24.40
2023-03-20T02:29:55.823Z,26.50
2023-03-20T02:32:56.083Z,24.70
2023-03-20T02:35:54.259Z,23.20
2023-03-20T02:38:38.903Z,25.50
2023-03-20T02:41:17.155Z,26.10
2023-03-20T02:43:54.301Z,23.90
2023-03-20T02:46:33.160Z,23.40
2023-03-20T02:49:11.206Z,24.20
2023-03-20T02:51:50.153Z,24.80
2023-03-20T02:54:28.350Z,29.00
2023-03-20T02:57:04.455Z,23.20
2023-03-20T02:59:42.497Z,21.90
2023-03-20T03:02:18.672Z,25.30
2023-03-20T03:04:54.731Z,23.90
2023-03-20T03:07:32.810Z,22.90
2023-03-20T03:10:08.272Z,24.10
2023-03-20T03:12:43.368Z,24.30
2023-03-20T03:15:21.197Z,22.60
2023-03-20T03:17:52.495Z,22.20
2023-03-20T03:20:27.308Z,22.70
2023-03-20T03:22:58.434Z,23.80
2023-03-20T03:25:34.991Z,23.80
2023-03-20T03:28:09.260Z,20.10
2023-03-20T03:30:41.340Z,21.50
2023-03-20T03:33:20.737Z,22.60
2023-03-20T03:35:56.699Z,19.20
2023-03-20T03:38:35.113Z,20.50
2023-03-20T03:41:25.601Z,22.90
2023-03-20T03:44:05.455Z,19.00
2023-03-20T03:46:44.527Z,19.10
2023-03-20T03:49:20.018Z,22.80
2023-03-20T03:51:54.613Z,19.80
2023-03-20T03:54:29.250Z,18.90
2023-03-20T03:57:27.805Z,19.40
2023-03-20T03:59:59.629Z,19.10
2023-03-20T04:02:30.810Z,19.10
2023-03-20T04:05:03.878Z,18.10
2023-03-20T04:07:34.624Z,16.10
2023-03-20T04:10:05.326Z,20.10
2023-03-20T04:12:41.220Z,18.20
2023-03-20T04:15:16.044Z,17.70
2023-03-20T04:17:46.969Z,21.00
2023-03-20T04:20:18.540Z,21.40
2023-03-20T04:25:22.572Z,17.90
2023-03-20T04:27:55.742Z,20.00
2023-03-20T04:30:56.481Z,19.90
2023-03-20T04:33:42.070Z,20.00
2023-03-20T04:36:31.652Z,19.70
2023-03-20T04:39:02.576Z,17.40
2023-03-20T04:41:33.094Z,18.70
2023-03-20T04:44:03.650Z,16.50
2023-03-20T04:46:35.963Z,19.10
2023-03-20T04:49:10.416Z,19.80
2023-03-20T04:51:41.166Z,17.00
2023-03-20T04:54:12.184Z,17.70
2023-03-20T04:56:42.849Z,17.50
2023-03-20T04:59:20.639Z,18.70
2023-03-20T05:01:51.194Z,17.60
2023-03-20T05:04:22.120Z,17.80
2023-03-20T05:06:52.957Z,17.70
2023-03-20T05:09:26.488Z,17.10
2023-03-20T05:11:57.397Z,15.00
2023-03-20T05:15:03.835Z,16.70
2023-03-20T05:17:53.024Z,16.90
2023-03-20T05:20:41.987Z,14.90
2023-03-20T05:23:24.672Z,14.00
2023-03-20T05:26:27.689Z,19.50
2023-03-20T05:28:58.125Z,16.10
2023-03-20T05:31:47.505Z,15.30
2023-03-20T05:34:28.873Z,15.40
2023-03-20T05:37:09.657Z,15.70
2023-03-20T05:39:58.807Z,14.80
2023-03-20T05:42:52.891Z,15.30
2023-03-20T05:45:49.487Z,14.90
2023-03-20T05:48:37.074Z,13.60
2023-03-20T05:51:26.027Z,13.50
2023-03-20T05:54:15.199Z,14.80
2023-03-20T05:57:06.322Z,15.30
2023-03-20T05:59:57.315Z,12.60
2023-03-20T06:02:44.917Z,12.90
2023-03-20T06:05:36.667Z,12.60
2023-03-20T06:08:07.841Z,15.60
2023-03-20T06:10:38.486Z,11.20
2023-03-20T06:13:09.592Z,14.60
2023-03-20T06:15:40.452Z,14.30
2023-03-20T06:18:16.333Z,13.90
2023-03-20T06:20:46.998Z,12.70
2023-03-20T06:23:17.868Z,16.10
2023-03-20T06:25:48.517Z,13.20
2023-03-20T06:28:19.426Z,12.50
2023-03-20T06:30:51.999Z,14.30
2023-03-20T06:33:23.413Z,15.20
2023-03-20T06:36:01.222Z,14.50
2023-03-20T06:38:33.629Z,14.60
2023-03-20T06:41:10.388Z,13.80
2023-03-20T06:43:42.979Z,13.80
2023-03-20T06:46:13.656Z,13.40
2023-03-20T06:48:44.566Z,14.50
2023-03-20T06:51:15.123Z,17.20
2023-03-20T06:53:53.701Z,15.60
2023-03-20T06:56:29.508Z,15.60
2023-03-20T06:59:00.011Z,14.50
2023-03-20T07:01:31.455Z,14.40
2023-03-20T07:04:02.396Z,17.50
2023-03-20T07:06:38.017Z,14.80
2023-03-20T07:09:08.994Z,17.80
2023-03-20T07:11:42.054Z,18.50
2023-03-20T07:14:13.098Z,14.90
2023-03-20T07:16:51.556Z,16.60
2023-03-20T07:19:22.201Z,16.80
2023-03-20T07:22:01.887Z,21.50
2023-03-20T07:24:35.403Z,16.40
2023-03-20T07:27:05.884Z,17.90
2023-03-20T07:29:37.883Z,17.00
2023-03-20T07:32:13.651Z,16.50
2023-03-20T07:34:51.537Z,15.70
2023-03-20T07:37:22.888Z,16.90
2023-03-20T07:40:01.985Z,18.00
2023-03-20T07:42:37.066Z,21.10
2023-03-20T07:45:30.175Z,19.40
2023-03-20T07:48:00.702Z,18.70
2023-03-20T07:50:31.378Z,18.00
2023-03-20T07:53:02.115Z,18.60
2023-03-20T07:55:32.639Z,19.40
2023-03-20T07:58:03.167Z,18.50
2023-03-20T08:00:33.696Z,19.40
2023-03-20T08:03:04.543Z,20.40
2023-03-20T08:05:35.826Z,21.10
2023-03-20T08:08:07.266Z,23.40
2023-03-20T08:10:37.843Z,22.50
2023-03-20T08:13:08.495Z,24.60
2023-03-20T08:15:39.479Z,23.70
2023-03-20T08:18:10.152Z,24.10
2023-03-20T08:20:40.701Z,23.90
2023-03-20T08:23:11.953Z,22.00
2023-03-20T08:25:42.385Z,24.80
2023-03-20T08:28:12.920Z,21.60
2023-03-20T08:30:43.377Z,21.20
2023-03-20T08:33:14.904Z,24.40
2023-03-20T08:35:56.076Z,22.30
2023-03-20T08:38:26.725Z,22.70
2023-03-20T08:40:57.194Z,24.10
2023-03-20T08:43:27.669Z,24.10
2023-03-20T08:45:58.243Z,22.60
2023-03-20T08:48:28.854Z,27.20
2023-03-20T08:50:59.360Z,22.70
2023-03-20T08:53:29.903Z,24.30
2023-03-20T08:56:00.714Z,23.90
2023-03-20T08:58:31.250Z,23.90
2023-03-20T09:01:06.915Z,25.00
2023-03-20T09:03:38.048Z,22.80
2023-03-20T09:06:11.150Z,23.30
2023-03-20T09:08:41.601Z,24.60
2023-03-20T09:11:12.085Z,24.40
2023-03-20T09:13:42.514Z,23.10
2023-03-20T09:16:14.995Z,24.30
2023-03-20T09:18:46.068Z,23.40
2023-03-20T09:21:16.589Z,21.80
2023-03-20T09:23:47.444Z,25.10
2023-03-20T09:26:17.923Z,21.90
2023-03-20T09:28:48.413Z,19.80
2023-03-20T09:31:18.916Z,20.80
2023-03-20T09:33:49.440Z,18.20
2023-03-20T09:36:19.977Z,15.70
2023-03-20T09:38:50.988Z,18.60
2023-03-20T09:41:26.137Z,16.60
2023-03-20T09:44:09.498Z,17.10
2023-03-20T09:47:19.428Z,16.00
2023-03-20T09:50:08.367Z,16.70
2023-03-20T09:52:42.225Z,16.10
2023-03-20T09:55:19.674Z,15.00
2023-03-20T09:57:55.008Z,15.30
2023-03-20T10:00:29.327Z,17.90
2023-03-20T10:03:02.942Z,13.30
2023-03-20T10:05:38.145Z,15.20
2023-03-20T10:08:15.717Z,13.30
2023-03-20T10:10:51.601Z,15.10
2023-03-20T10:13:59.321Z,14.50
2023-03-20T10:16:46.740Z,16.40
2023-03-20T10:19:24.426Z,16.00
2023-03-20T10:22:02.616Z,13.70
2023-03-20T10:24:39.950Z,14.40
2023-03-20T10:27:20.842Z,15.70
2023-03-20T10:30:02.887Z,15.70
2023-03-20T10:32:39.722Z,13.50
2023-03-20T10:35:24.458Z,14.60
2023-03-20T10:38:13.436Z,13.70
2023-03-20T10:40:44.590Z,11.60
2023-03-20T10:43:20.827Z,12.30
2023-03-20T10:45:55.044Z,11.60
2023-03-20T10:48:32.151Z,12.70
2023-03-20T10:51:05.061Z,11.90
2023-03-20T10:53:44.039Z,14.00
2023-03-20T10:56:17.838Z,10.90
2023-03-20T10:59:00.106Z,11.40
2023-03-20T11:01:31.237Z,12.40
2023-03-20T11:04:02.398Z,12.20
2023-03-20T11:06:36.541Z,14.50
2023-03-20T11:09:19.196Z,10.90
2023-03-20T11:11:52.574Z,10.60
2023-03-20T11:14:25.252Z,11.50
2023-03-20T11:16:57.108Z,11.00
2023-03-20T11:19:27.753Z,9.90
2023-03-20T11:22:01.486Z,9.30
2023-03-20T11:24:38.155Z,10.60
2023-03-20T11:27:11.335Z,10.90
2023-03-20T11:29:45.743Z,9.60
2023-03-20T11:32:28.329Z,10.80
2023-03-20T11:35:10.963Z,10.00
2023-03-20T11:37:47.660Z,13.10
2023-03-20T11:40:25.064Z,11.50
2023-03-20T11:42:57.539Z,11.40
2023-03-20T11:45:29.169Z,17.70
2023-03-20T11:48:03.850Z,13.50
2023-03-20T11:50:36.759Z,13.30
2023-03-20T11:53:23.474Z,14.20
2023-03-20T11:56:10.939Z,14.30
2023-03-20T11:58:52.170Z,14.40
2023-03-20T12:01:24.338Z,14.20
2023-03-20T12:04:02.600Z,17.30
2023-03-20T12:06:47.331Z,15.80
2023-03-20T12:09:31.278Z,15.60
2023-03-20T12:12:04.880Z,12.60
2023-03-20T12:14:43.411Z,13.10
2023-03-20T12:17:30.616Z,13.60
2023-03-20T12:20:08.133Z,14.50
2023-03-20T12:22:44.291Z,12.70
2023-03-20T12:25:23.256Z,13.80
2023-03-20T12:28:02.218Z,13.30
2023-03-20T12:30:41.586Z,13.00
2023-03-20T12:33:21.722Z,15.30
2023-03-20T12:35:55.490Z,14.00
2023-03-20T12:38:31.056Z,13.80
2023-03-20T12:41:11.739Z,14.30
2023-03-20T12:43:57.860Z,12.90
2023-03-20T12:46:35.046Z,12.50
2023-03-20T12:49:15.887Z,11.90
2023-03-20T12:51:59.428Z,11.70
2023-03-20T12:54:42.253Z,13.60
2023-03-20T12:57:23.563Z,11.70
2023-03-20T13:00:13.910Z,11.10
2023-03-20T13:02:54.312Z,8.70
2023-03-20T13:05:34.618Z,9.20
2023-03-20T13:08:20.440Z,9.90
2023-03-20T13:10:58.126Z,11.30
2023-03-20T13:13:39.319Z,11.60
2023-03-20T13:16:20.187Z,10.30
2023-03-20T13:19:00.724Z,10.70
2023-03-20T13:21:38.029Z,9.40
2023-03-20T13:24:26.995Z,12.00
2023-03-20T13:27:06.237Z,7.70
2023-03-20T13:29:49.053Z,9.40
2023-03-20T13:32:28.321Z,5.10
2023-03-20T13:35:16.224Z,5.80
2023-03-20T13:37:49.923Z,3.80
2023-03-20T13:40:24.922Z,4.00
2023-03-20T13:43:00.913Z,14.60
2023-03-20T13:45:37.737Z,10.60
2023-03-20T13:48:25.431Z,4.50
2023-03-20T13:51:02.408Z,3.20
2023-03-20T13:53:39.731Z,4.80
2023-03-20T13:56:21.692Z,3.80
2023-03-20T13:59:07.385Z,4.20
2023-03-20T14:01:47.435Z,5.50
2023-03-20T14:04:22.581Z,6.70
2023-03-20T14:06:55.888Z,4.40
2023-03-20T14:09:31.862Z,5.70
2023-03-20T14:12:08.415Z,4.70
2023-03-20T14:14:47.650Z,6.10
2023-03-20T14:17:22.461Z,5.70
2023-03-20T14:19:54.701Z,6.50
2023-03-20T14:22:28.838Z,7.20
2023-03-20T14:25:06.785Z,8.90
2023-03-20T14:27:55.826Z,7.60
2023-03-20T14:30:42.723Z,8.10
2023-03-20T14:33:31.382Z,8.60
2023-03-20T14:36:21.217Z,9.80
2023-03-20T14:39:13.500Z,7.80
2023-03-20T14:41:59.692Z,5.70
2023-03-20T14:44:47.542Z,5.30
2023-03-20T14:47:26.864Z,5.40
2023-03-20T14:50:07.237Z,7.00
2023-03-20T14:52:51.572Z,6.80
2023-03-20T14:55:35.345Z,6.10
2023-03-20T14:58:27.331Z,5.10
2023-03-20T15:01:01.998Z,5.10
2023-03-20T15:03:33.918Z,4.00
2023-03-20T15:06:08.667Z,4.20
2023-03-20T15:08:46.474Z,4.20
2023-03-20T15:11:18.128Z,3.40
2023-03-20T15:13:50.419Z,3.90
2023-03-20T15:16:29.534Z,5.60
2023-03-20T15:19:01.083Z,7.00
2023-03-20T15:21:36.274Z,3.90
2023-03-20T15:24:07.992Z,4.30
2023-03-20T15:26:39.022Z,5.50
2023-03-20T15:29:13.745Z,5.80
2023-03-20T15:31:44.191Z,4.50
2023-03-20T15:34:20.830Z,4.40
2023-03-20T15:36:53.363Z,6.40
2023-03-20T15:39:26.113Z,5.70
2023-03-20T15:42:00.026Z,5.10
2023-03-20T15:44:38.278Z,6.40
2023-03-20T15:47:17.417Z,5.00
2023-03-20T15:49:53.521Z,6.50
2023-03-20T15:52:31.611Z,4.60
2023-03-20T15:55:06.929Z,4.30
2023-03-20T15:57:39.818Z,7.70
2023-03-20T16:00:16.847Z,4.30
2023-03-20T16:02:49.053Z,8.10
2023-03-20T16:05:22.320Z,5.50
2023-03-20T16:07:52.758Z,4.50
2023-03-20T16:10:28.919Z,3.90
2023-03-20T16:13:00.431Z,3.70
2023-03-20T16:15:34.047Z,4.80
2023-03-20T16:18:06.954Z,5.00
2023-03-20T16:20:41.495Z,4.80
2023-03-20T16:23:15.293Z,4.40
2023-03-20T16:25:45.823Z,5.50
2023-03-20T16:28:17.697Z,4.40
2023-03-20T16:33:19.866Z,5.40
2023-03-20T16:35:52.359Z,4.60
2023-03-20T16:38:29.279Z,5.60
2023-03-20T16:41:17.663Z,4.00
2023-03-20T16:43:52.278Z,5.00
2023-03-20T16:46:26.547Z,4.80
2023-03-20T16:49:00.215Z,5.30
2023-03-20T16:51:32.241Z,6.10
2023-03-20T16:56:38.435Z,6.10
2023-03-20T16:59:11.906Z,6.30
2023-03-20T17:01:48.539Z,5.90
2023-03-20T17:04:22.424Z,6.50
2023-03-20T17:06:56.885Z,5.60
2023-03-20T17:09:30.534Z,6.50
2023-03-20T17:12:06.527Z,7.00
2023-03-20T17:14:37.034Z,6.30
2023-03-20T17:17:12.728Z,7.10
2023-03-20T17:19:43.723Z,7.20
2023-03-20T17:22:17.360Z,7.30
2023-03-20T17:24:47.914Z,13.90
2023-03-20T17:27:19.765Z,14.90
2023-03-20T17:32:23.944Z,7.60
2023-03-20T17:34:54.592Z,7.90
2023-03-20T17:37:29.735Z,6.80
2023-03-20T17:40:01.484Z,6.90
2023-03-20T17:42:32.521Z,7.70
2023-03-20T17:45:04.419Z,6.90
2023-03-20T17:47:34.948Z,6.70
2023-03-20T17:50:06.067Z,6.70
2023-03-20T17:52:36.536Z,7.70
2023-03-20T17:55:08.877Z,7.80
2023-03-20T17:57:42.168Z,9.50
2023-03-20T18:00:18.867Z,7.70
2023-03-20T18:02:49.859Z,6.70
2023-03-20T18:05:20.778Z,7.10
2023-03-20T18:07:51.393Z,7.80
2023-03-20T18:10:32.091Z,8.00
2023-03-20T18:13:02.863Z,8.20
2023-03-20T18:15:33.839Z,7.80
2023-03-20T18:18:05.839Z,8.50
2023-03-20T18:20:41.042Z,9.10
2023-03-20T18:23:12.951Z,8.30
2023-03-20T18:28:20.858Z,7.70
2023-03-20T18:30:52.351Z,8.30
2023-03-20T18:33:27.671Z,6.90
2023-03-20T18:35:58.251Z,8.70
2023-03-20T18:38:30.651Z,7.40
2023-03-20T18:41:02.426Z,8.20
2023-03-20T18:43:32.875Z,8.90
2023-03-20T18:46:03.343Z,8.90
2023-03-20T18:48:33.857Z,13.90
2023-03-20T18:51:05.177Z,10.50
2023-03-20T18:53:35.698Z,10.50
2023-03-20T18:56:08.217Z,10.60
2023-03-20T18:58:38.778Z,10.20
2023-03-20T19:01:11.338Z,9.80
2023-03-20T19:03:42.820Z,10.70
2023-03-20T19:06:16.752Z,14.00
2023-03-20T19:08:49.209Z,10.40
2023-03-20T19:11:21.678Z,11.20
2023-03-20T19:13:54.592Z,10.90
2023-03-20T19:16:27.548Z,11.00
2023-03-20T19:19:01.479Z,12.30
2023-03-20T19:21:33.545Z,11.30
2023-03-20T19:24:06.463Z,13.00
2023-03-20T19:26:38.496Z,10.80
2023-03-20T19:29:10.756Z,14.80
2023-03-20T19:31:41.225Z,11.80
2023-03-20T19:34:34.994Z,12.60
2023-03-20T19:37:02.166Z,13.00
2023-03-20T19:39:32.765Z,18.10
2023-03-20T19:42:22.037Z,13.70
2023-03-20T19:44:56.362Z,11.80
2023-03-20T19:47:26.921Z,11.70
2023-03-20T19:49:57.599Z,12.50
2023-03-20T19:52:34.053Z,11.60
2023-03-20T19:55:04.894Z,10.10
2023-03-20T19:57:35.881Z,11.40
2023-03-20T20:02:59.328Z,12.10
2023-03-20T20:05:34.085Z,12.80
2023-03-20T20:08:30.901Z,11.40
2023-03-20T20:10:58.320Z,14.30
2023-03-20T20:13:30.790Z,12.60
2023-03-20T20:16:01.571Z,14.30
2023-03-20T20:18:32.393Z,11.90
2023-03-20T20:21:59.656Z,12.40
2023-03-20T20:23:53.329Z,14.10
2023-03-20T20:26:24.286Z,15.40
2023-03-20T20:28:55.003Z,15.70
2023-03-20T20:31:31.904Z,15.70
2023-03-20T20:34:58.454Z,17.00
2023-03-20T20:39:43.566Z,20.70
2023-03-20T20:42:14.321Z,17.40
2023-03-20T20:44:45.390Z,18.10
2023-03-20T20:47:16.927Z,16.20
2023-03-20T20:49:48.395Z,16.80
2023-03-20T20:52:19.021Z,18.00
2023-03-20T20:54:49.547Z,19.50
2023-03-20T20:57:19.985Z,19.80
2023-03-20T20:59:53.187Z,20.70
2023-03-20T21:02:23.653Z,20.40
2023-03-20T21:04:54.213Z,17.50
2023-03-20T21:07:25.751Z,17.50
2023-03-20T21:09:56.614Z,18.90
2023-03-20T21:12:38.173Z,20.10
2023-03-20T21:15:12.197Z,20.40
2023-03-20T21:17:57.817Z,21.70
2023-03-20T21:20:31.127Z,24.10
2023-03-20T21:23:02.349Z,23.80
2023-03-20T21:25:40.116Z,22.40
2023-03-20T21:28:12.169Z,23.10
2023-03-20T21:30:59.991Z,26.20
2023-03-20T21:33:33.846Z,22.70
2023-03-20T21:36:04.798Z,21.30
2023-03-20T21:41:26.583Z,22.40
2023-03-20T21:43:57.000Z,22.10
2023-03-20T21:50:23.261Z,24.70
2023-03-20T21:58:38.386Z,24.80
2023-03-20T22:07:15.040Z,21.20
2023-03-20T22:21:22.475Z,21.80
2023-03-20T22:35:31.454Z,21.70
2023-03-20T22:38:21.864Z,32.50
2023-03-20T22:41:18.290Z,25.20
2023-03-20T22:46:41.790Z,23.20
2023-03-20T22:49:02.803Z,21.90
2023-03-20T22:51:37.044Z,20.60
2023-03-20T22:54:12.128Z,22.10
2023-03-20T22:56:42.584Z,22.90
2023-03-20T22:59:13.062Z,27.00
2023-03-20T23:01:43.554Z,24.30
2023-03-20T23:04:14.066Z,23.80
2023-03-20T23:06:45.271Z,26.20
2023-03-20T23:09:16.101Z,26.50
2023-03-20T23:11:47.445Z,24.80
2023-03-20T23:14:21.496Z,25.80
2023-03-20T23:16:52.849Z,26.90
2023-03-20T23:19:23.428Z,24.40
2023-03-20T23:21:53.972Z,26.50
2023-03-20T23:24:24.473Z,29.50
2023-03-20T23:26:55.254Z,31.60
2023-03-20T23:29:25.714Z,28.60
2023-03-20T23:31:56.339Z,28.30
2023-03-20T23:34:26.894Z,32.70
2023-03-20T23:36:57.464Z,30.50
2023-03-20T23:39:28.002Z,27.20
2023-03-20T23:42:12.089Z,27.40
2023-03-20T23:44:56.394Z,30.50
2023-03-20T23:47:38.490Z,30.00
2023-03-20T23:50:26.459Z,32.10
2023-03-20T23:53:13.215Z,32.70
2023-03-20T23:55:49.222Z,27.50
2023-03-20T23:58:20.374Z,31.20
